sensor_id;sensor_type;location;lat;lon;timestamp;P1;durP1;ratioP1;P2;durP2;ratioP2
10557;SDS011;5327;47.238;-2.304;2023-04-03T00:01:07;11.47;;;4.40;;
10557;SDS011;5327;47.238;-2.304;2023-04-03T00:03:33;11.27;;;4.07;;
10557;SDS011;5327;47.238;-2.304;2023-04-03T00:05:59;10.67;;;4.27;;
10557;SDS011;5327;47.238;-2.304;2023-04-03T00:08:25;8.60;;;3.10;;
10557;SDS011;5327;47.238;-2.304;2023-04-03T00:10:51;14.70;;;5.00;;
10557;SDS011;5327;47.238;-2.304;2023-04-03T00:13:17;13.37;;;4.40;;
10557;SDS011;5327;47.238;-2.304;2023-04-03T00:15:44;10.07;;;3.97;;
10557;SDS011;5327;47.238;-2.304;2023-04-03T00:18:10;12.93;;;4.77;;
10557;SDS011;5327;47.238;-2.304;2023-04-03T00:20:36;10.97;;;4.17;;
10557;SDS011;5327;47.238;-2.304;2023-04-03T00:23:02;9.00;;;3.97;;
10557;SDS011;5327;47.238;-2.304;2023-04-03T00:25:28;9.60;;;3.70;;
10557;SDS011;5327;47.238;-2.304;2023-04-03T00:27:54;11.20;;;3.80;;
10557;SDS011;5327;47.238;-2.304;2023-04-03T00:30:21;14.10;;;4.80;;
10557;SDS011;5327;47.238;-2.304;2023-04-03T00:32:48;10.17;;;4.20;;
10557;SDS011;5327;47.238;-2.304;2023-04-03T00:35:14;10.57;;;4.77;;
10557;SDS011;5327;47.238;-2.304;2023-04-03T00:37:43;15.60;;;4.93;;
10557;SDS011;5327;47.238;-2.304;2023-04-03T00:40:10;15.37;;;4.97;;
10557;SDS011;5327;47.238;-2.304;2023-04-03T00:42:37;12.43;;;4.90;;
10557;SDS011;5327;47.238;-2.304;2023-04-03T00:47:30;7.70;;;3.40;;
10557;SDS011;5327;47.238;-2.304;2023-04-03T00:49:56;12.00;;;4.23;;
10557;SDS011;5327;47.238;-2.304;2023-04-03T00:52:23;15.67;;;5.13;;
10557;SDS011;5327;47.238;-2.304;2023-04-03T00:54:51;12.23;;;4.30;;
10557;SDS011;5327;47.238;-2.304;2023-04-03T00:57:18;11.23;;;5.00;;
10557;SDS011;5327;47.238;-2.304;2023-04-03T00:59:46;15.90;;;4.57;;
10557;SDS011;5327;47.238;-2.304;2023-04-03T01:02:12;11.33;;;4.77;;
10557;SDS011;5327;47.238;-2.304;2023-04-03T01:04:39;13.50;;;4.47;;
10557;SDS011;5327;47.238;-2.304;2023-04-03T01:07:15;15.23;;;5.17;;
10557;SDS011;5327;47.238;-2.304;2023-04-03T01:09:42;19.67;;;5.17;;
10557;SDS011;5327;47.238;-2.304;2023-04-03T01:14:54;11.97;;;4.87;;
10557;SDS011;5327;47.238;-2.304;2023-04-03T01:17:31;12.50;;;4.10;;
10557;SDS011;5327;47.238;-2.304;2023-04-03T01:22:39;13.27;;;4.60;;
10557;SDS011;5327;47.238;-2.304;2023-04-03T01:25:10;18.17;;;5.37;;
10557;SDS011;5327;47.238;-2.304;2023-04-03T01:27:36;9.80;;;3.70;;
10557;SDS011;5327;47.238;-2.304;2023-04-03T01:30:02;12.50;;;4.27;;
10557;SDS011;5327;47.238;-2.304;2023-04-03T01:32:28;13.03;;;5.00;;
10557;SDS011;5327;47.238;-2.304;2023-04-03T01:34:54;16.37;;;5.43;;
10557;SDS011;5327;47.238;-2.304;2023-04-03T01:37:20;16.33;;;5.00;;
10557;SDS011;5327;47.238;-2.304;2023-04-03T01:39:46;11.50;;;4.73;;
10557;SDS011;5327;47.238;-2.304;2023-04-03T01:42:12;13.50;;;4.70;;
10557;SDS011;5327;47.238;-2.304;2023-04-03T01:44:38;13.53;;;4.83;;
10557;SDS011;5327;47.238;-2.304;2023-04-03T01:47:07;13.83;;;5.37;;
10557;SDS011;5327;47.238;-2.304;2023-04-03T01:49:33;15.33;;;4.80;;
10557;SDS011;5327;47.238;-2.304;2023-04-03T01:51:59;12.80;;;5.20;;
10557;SDS011;5327;47.238;-2.304;2023-04-03T01:54:25;15.10;;;5.73;;
10557;SDS011;5327;47.238;-2.304;2023-04-03T01:56:51;14.63;;;4.83;;
10557;SDS011;5327;47.238;-2.304;2023-04-03T01:59:17;18.97;;;4.90;;
10557;SDS011;5327;47.238;-2.304;2023-04-03T02:01:44;11.43;;;4.60;;
10557;SDS011;5327;47.238;-2.304;2023-04-03T02:04:10;14.80;;;4.80;;
10557;SDS011;5327;47.238;-2.304;2023-04-03T02:06:36;16.53;;;5.20;;
10557;SDS011;5327;47.238;-2.304;2023-04-03T02:09:02;15.73;;;4.70;;
10557;SDS011;5327;47.238;-2.304;2023-04-03T02:11:29;14.70;;;5.40;;
10557;SDS011;5327;47.238;-2.304;2023-04-03T02:13:55;17.83;;;5.47;;
10557;SDS011;5327;47.238;-2.304;2023-04-03T02:16:21;11.80;;;4.10;;
10557;SDS011;5327;47.238;-2.304;2023-04-03T02:18:47;14.23;;;5.20;;
10557;SDS011;5327;47.238;-2.304;2023-04-03T02:21:13;16.30;;;5.40;;
10557;SDS011;5327;47.238;-2.304;2023-04-03T02:23:39;25.83;;;6.67;;
10557;SDS011;5327;47.238;-2.304;2023-04-03T02:26:09;16.90;;;5.73;;
10557;SDS011;5327;47.238;-2.304;2023-04-03T02:28:36;9.70;;;4.73;;
10557;SDS011;5327;47.238;-2.304;2023-04-03T02:31:02;11.33;;;4.13;;
10557;SDS011;5327;47.238;-2.304;2023-04-03T02:33:29;13.67;;;6.00;;
10557;SDS011;5327;47.238;-2.304;2023-04-03T02:35:55;13.40;;;4.93;;
10557;SDS011;5327;47.238;-2.304;2023-04-03T02:38:22;11.17;;;3.57;;
10557;SDS011;5327;47.238;-2.304;2023-04-03T02:40:48;19.53;;;6.13;;
10557;SDS011;5327;47.238;-2.304;2023-04-03T02:43:14;13.70;;;5.20;;
10557;SDS011;5327;47.238;-2.304;2023-04-03T02:45:40;11.70;;;5.20;;
10557;SDS011;5327;47.238;-2.304;2023-04-03T02:48:06;16.93;;;5.50;;
10557;SDS011;5327;47.238;-2.304;2023-04-03T02:50:32;14.67;;;5.07;;
10557;SDS011;5327;47.238;-2.304;2023-04-03T02:52:58;12.43;;;4.70;;
10557;SDS011;5327;47.238;-2.304;2023-04-03T02:55:24;16.17;;;4.47;;
10557;SDS011;5327;47.238;-2.304;2023-04-03T02:57:51;12.37;;;4.60;;
10557;SDS011;5327;47.238;-2.304;2023-04-03T03:00:17;15.03;;;5.03;;
10557;SDS011;5327;47.238;-2.304;2023-04-03T03:02:43;10.80;;;4.30;;
10557;SDS011;5327;47.238;-2.304;2023-04-03T03:05:09;20.07;;;5.37;;
10557;SDS011;5327;47.238;-2.304;2023-04-03T03:07:35;18.17;;;4.40;;
10557;SDS011;5327;47.238;-2.304;2023-04-03T03:10:01;8.83;;;4.40;;
10557;SDS011;5327;47.238;-2.304;2023-04-03T03:12:27;15.20;;;4.93;;
10557;SDS011;5327;47.238;-2.304;2023-04-03T03:14:53;18.83;;;4.90;;
10557;SDS011;5327;47.238;-2.304;2023-04-03T03:17:19;18.77;;;5.10;;
10557;SDS011;5327;47.238;-2.304;2023-04-03T03:19:45;13.00;;;4.43;;
10557;SDS011;5327;47.238;-2.304;2023-04-03T03:22:11;12.40;;;4.00;;
10557;SDS011;5327;47.238;-2.304;2023-04-03T03:24:37;18.20;;;5.43;;
10557;SDS011;5327;47.238;-2.304;2023-04-03T03:27:03;17.20;;;5.40;;
10557;SDS011;5327;47.238;-2.304;2023-04-03T03:29:30;17.17;;;5.10;;
10557;SDS011;5327;47.238;-2.304;2023-04-03T03:31:56;19.90;;;5.50;;
10557;SDS011;5327;47.238;-2.304;2023-04-03T03:34:22;13.97;;;5.13;;
10557;SDS011;5327;47.238;-2.304;2023-04-03T03:36:48;18.93;;;5.83;;
10557;SDS011;5327;47.238;-2.304;2023-04-03T03:39:14;10.90;;;3.70;;
10557;SDS011;5327;47.238;-2.304;2023-04-03T03:41:40;12.00;;;4.03;;
10557;SDS011;5327;47.238;-2.304;2023-04-03T03:44:06;17.30;;;4.83;;
10557;SDS011;5327;47.238;-2.304;2023-04-03T03:46:32;9.67;;;3.73;;
10557;SDS011;5327;47.238;-2.304;2023-04-03T03:48:58;13.50;;;4.27;;
10557;SDS011;5327;47.238;-2.304;2023-04-03T03:51:25;15.03;;;4.80;;
10557;SDS011;5327;47.238;-2.304;2023-04-03T03:53:51;13.97;;;5.50;;
10557;SDS011;5327;47.238;-2.304;2023-04-03T03:56:17;12.60;;;4.20;;
10557;SDS011;5327;47.238;-2.304;2023-04-03T03:58:43;14.63;;;4.50;;
10557;SDS011;5327;47.238;-2.304;2023-04-03T04:01:09;17.87;;;4.83;;
10557;SDS011;5327;47.238;-2.304;2023-04-03T04:03:35;16.47;;;4.93;;
10557;SDS011;5327;47.238;-2.304;2023-04-03T04:06:02;22.37;;;4.87;;
10557;SDS011;5327;47.238;-2.304;2023-04-03T04:08:28;12.43;;;4.53;;
10557;SDS011;5327;47.238;-2.304;2023-04-03T04:10:54;11.60;;;3.60;;
10557;SDS011;5327;47.238;-2.304;2023-04-03T04:13:20;14.67;;;4.40;;
10557;SDS011;5327;47.238;-2.304;2023-04-03T04:15:46;14.50;;;4.27;;
10557;SDS011;5327;47.238;-2.304;2023-04-03T04:18:12;20.13;;;5.70;;
10557;SDS011;5327;47.238;-2.304;2023-04-03T04:20:38;16.23;;;4.40;;
10557;SDS011;5327;47.238;-2.304;2023-04-03T04:23:04;15.93;;;4.97;;
10557;SDS011;5327;47.238;-2.304;2023-04-03T04:25:30;11.03;;;4.43;;
10557;SDS011;5327;47.238;-2.304;2023-04-03T04:27:57;19.07;;;4.93;;
10557;SDS011;5327;47.238;-2.304;2023-04-03T04:30:23;21.47;;;4.83;;
10557;SDS011;5327;47.238;-2.304;2023-04-03T04:32:49;14.53;;;4.63;;
10557;SDS011;5327;47.238;-2.304;2023-04-03T04:35:15;19.40;;;4.53;;
10557;SDS011;5327;47.238;-2.304;2023-04-03T04:37:41;18.07;;;5.00;;
10557;SDS011;5327;47.238;-2.304;2023-04-03T04:40:07;20.23;;;7.30;;
10557;SDS011;5327;47.238;-2.304;2023-04-03T04:42:34;18.83;;;5.40;;
10557;SDS011;5327;47.238;-2.304;2023-04-03T04:45:00;20.93;;;6.70;;
10557;SDS011;5327;47.238;-2.304;2023-04-03T04:47:27;17.63;;;4.43;;
10557;SDS011;5327;47.238;-2.304;2023-04-03T04:49:53;11.40;;;4.00;;
10557;SDS011;5327;47.238;-2.304;2023-04-03T04:52:19;14.03;;;4.67;;
10557;SDS011;5327;47.238;-2.304;2023-04-03T04:54:45;12.67;;;4.00;;
10557;SDS011;5327;47.238;-2.304;2023-04-03T04:57:11;20.00;;;4.73;;
10557;SDS011;5327;47.238;-2.304;2023-04-03T04:59:37;19.90;;;6.33;;
10557;SDS011;5327;47.238;-2.304;2023-04-03T05:02:03;15.60;;;3.30;;
10557;SDS011;5327;47.238;-2.304;2023-04-03T05:04:30;27.40;;;4.83;;
10557;SDS011;5327;47.238;-2.304;2023-04-03T05:06:56;12.13;;;3.17;;
10557;SDS011;5327;47.238;-2.304;2023-04-03T05:09:22;16.50;;;3.80;;
10557;SDS011;5327;47.238;-2.304;2023-04-03T05:11:48;16.23;;;4.60;;
10557;SDS011;5327;47.238;-2.304;2023-04-03T05:14:14;17.77;;;5.30;;
10557;SDS011;5327;47.238;-2.304;2023-04-03T05:16:40;17.40;;;4.60;;
10557;SDS011;5327;47.238;-2.304;2023-04-03T05:19:06;21.43;;;5.10;;
10557;SDS011;5327;47.238;-2.304;2023-04-03T05:21:33;17.07;;;5.73;;
10557;SDS011;5327;47.238;-2.304;2023-04-03T05:23:59;20.90;;;5.07;;
10557;SDS011;5327;47.238;-2.304;2023-04-03T05:26:27;22.87;;;4.90;;
10557;SDS011;5327;47.238;-2.304;2023-04-03T05:28:53;15.87;;;4.93;;
10557;SDS011;5327;47.238;-2.304;2023-04-03T05:31:20;16.57;;;4.40;;
10557;SDS011;5327;47.238;-2.304;2023-04-03T05:33:46;25.33;;;4.73;;
10557;SDS011;5327;47.238;-2.304;2023-04-03T05:36:12;14.83;;;4.50;;
10557;SDS011;5327;47.238;-2.304;2023-04-03T05:38:38;31.90;;;7.50;;
10557;SDS011;5327;47.238;-2.304;2023-04-03T05:41:04;19.30;;;6.03;;
10557;SDS011;5327;47.238;-2.304;2023-04-03T05:43:30;18.90;;;5.90;;
10557;SDS011;5327;47.238;-2.304;2023-04-03T05:45:57;11.97;;;4.47;;
10557;SDS011;5327;47.238;-2.304;2023-04-03T05:48:23;18.43;;;4.27;;
10557;SDS011;5327;47.238;-2.304;2023-04-03T05:50:50;26.83;;;4.53;;
10557;SDS011;5327;47.238;-2.304;2023-04-03T05:53:18;17.87;;;5.50;;
10557;SDS011;5327;47.238;-2.304;2023-04-03T05:55:44;21.20;;;5.13;;
10557;SDS011;5327;47.238;-2.304;2023-04-03T05:58:10;15.50;;;4.70;;
10557;SDS011;5327;47.238;-2.304;2023-04-03T06:00:36;22.67;;;5.73;;
10557;SDS011;5327;47.238;-2.304;2023-04-03T06:03:03;31.80;;;7.57;;
10557;SDS011;5327;47.238;-2.304;2023-04-03T06:05:29;16.23;;;5.10;;
10557;SDS011;5327;47.238;-2.304;2023-04-03T06:07:55;25.10;;;5.40;;
10557;SDS011;5327;47.238;-2.304;2023-04-03T06:10:22;79.63;;;18.93;;
10557;SDS011;5327;47.238;-2.304;2023-04-03T06:12:48;15.00;;;5.37;;
10557;SDS011;5327;47.238;-2.304;2023-04-03T06:15:14;15.23;;;4.80;;
10557;SDS011;5327;47.238;-2.304;2023-04-03T06:17:41;18.33;;;6.63;;
10557;SDS011;5327;47.238;-2.304;2023-04-03T06:20:08;13.33;;;4.53;;
10557;SDS011;5327;47.238;-2.304;2023-04-03T06:22:34;19.53;;;5.50;;
10557;SDS011;5327;47.238;-2.304;2023-04-03T06:25:01;18.10;;;4.40;;
10557;SDS011;5327;47.238;-2.304;2023-04-03T06:27:27;18.07;;;5.03;;
10557;SDS011;5327;47.238;-2.304;2023-04-03T06:29:53;18.90;;;4.67;;
10557;SDS011;5327;47.238;-2.304;2023-04-03T06:32:19;15.90;;;5.47;;
10557;SDS011;5327;47.238;-2.304;2023-04-03T06:34:45;18.60;;;4.80;;
10557;SDS011;5327;47.238;-2.304;2023-04-03T06:37:18;10.80;;;4.20;;
10557;SDS011;5327;47.238;-2.304;2023-04-03T06:39:45;18.13;;;5.43;;
10557;SDS011;5327;47.238;-2.304;2023-04-03T06:42:11;13.83;;;4.57;;
10557;SDS011;5327;47.238;-2.304;2023-04-03T06:44:37;21.57;;;5.47;;
10557;SDS011;5327;47.238;-2.304;2023-04-03T06:47:03;14.83;;;5.73;;
10557;SDS011;5327;47.238;-2.304;2023-04-03T06:49:29;14.37;;;4.60;;
10557;SDS011;5327;47.238;-2.304;2023-04-03T06:51:55;19.30;;;5.97;;
10557;SDS011;5327;47.238;-2.304;2023-04-03T06:54:22;13.03;;;6.10;;
10557;SDS011;5327;47.238;-2.304;2023-04-03T06:56:48;20.00;;;6.00;;
10557;SDS011;5327;47.238;-2.304;2023-04-03T06:59:15;17.57;;;5.53;;
10557;SDS011;5327;47.238;-2.304;2023-04-03T07:01:41;24.10;;;7.90;;
10557;SDS011;5327;47.238;-2.304;2023-04-03T07:04:07;13.23;;;5.17;;
10557;SDS011;5327;47.238;-2.304;2023-04-03T07:06:33;16.57;;;5.57;;
10557;SDS011;5327;47.238;-2.304;2023-04-03T07:09:00;25.23;;;5.47;;
10557;SDS011;5327;47.238;-2.304;2023-04-03T07:11:26;15.20;;;4.50;;
10557;SDS011;5327;47.238;-2.304;2023-04-03T07:13:53;18.53;;;4.90;;
10557;SDS011;5327;47.238;-2.304;2023-04-03T07:16:19;18.47;;;6.50;;
10557;SDS011;5327;47.238;-2.304;2023-04-03T07:18:45;14.07;;;5.17;;
10557;SDS011;5327;47.238;-2.304;2023-04-03T07:21:13;15.67;;;5.97;;
10557;SDS011;5327;47.238;-2.304;2023-04-03T07:23:39;19.73;;;6.17;;
10557;SDS011;5327;47.238;-2.304;2023-04-03T07:26:05;17.20;;;6.23;;
10557;SDS011;5327;47.238;-2.304;2023-04-03T07:28:32;13.67;;;5.10;;
10557;SDS011;5327;47.238;-2.304;2023-04-03T07:31:05;15.83;;;6.70;;
10557;SDS011;5327;47.238;-2.304;2023-04-03T07:33:33;12.30;;;4.63;;
10557;SDS011;5327;47.238;-2.304;2023-04-03T07:36:00;15.43;;;4.77;;
10557;SDS011;5327;47.238;-2.304;2023-04-03T07:38:26;12.23;;;3.50;;
10557;SDS011;5327;47.238;-2.304;2023-04-03T07:40:52;14.07;;;4.73;;
10557;SDS011;5327;47.238;-2.304;2023-04-03T07:43:18;23.93;;;6.23;;
10557;SDS011;5327;47.238;-2.304;2023-04-03T07:45:45;17.93;;;6.27;;
10557;SDS011;5327;47.238;-2.304;2023-04-03T07:48:14;12.00;;;5.17;;
10557;SDS011;5327;47.238;-2.304;2023-04-03T07:50:40;18.50;;;4.17;;
10557;SDS011;5327;47.238;-2.304;2023-04-03T07:53:07;16.47;;;5.77;;
10557;SDS011;5327;47.238;-2.304;2023-04-03T07:55:33;14.90;;;5.37;;
10557;SDS011;5327;47.238;-2.304;2023-04-03T07:57:59;14.70;;;5.17;;
10557;SDS011;5327;47.238;-2.304;2023-04-03T08:00:25;12.23;;;6.20;;
10557;SDS011;5327;47.238;-2.304;2023-04-03T08:02:51;15.20;;;5.60;;
10557;SDS011;5327;47.238;-2.304;2023-04-03T08:05:18;20.13;;;7.70;;
10557;SDS011;5327;47.238;-2.304;2023-04-03T08:07:44;10.40;;;4.77;;
10557;SDS011;5327;47.238;-2.304;2023-04-03T08:10:11;19.60;;;6.97;;
10557;SDS011;5327;47.238;-2.304;2023-04-03T08:12:37;9.00;;;4.60;;
10557;SDS011;5327;47.238;-2.304;2023-04-03T08:15:03;19.00;;;6.60;;
10557;SDS011;5327;47.238;-2.304;2023-04-03T08:17:29;38.17;;;5.73;;
10557;SDS011;5327;47.238;-2.304;2023-04-03T08:19:55;16.03;;;8.07;;
10557;SDS011;5327;47.238;-2.304;2023-04-03T08:22:21;15.87;;;7.00;;
10557;SDS011;5327;47.238;-2.304;2023-04-03T08:24:47;15.80;;;5.37;;
10557;SDS011;5327;47.238;-2.304;2023-04-03T08:27:13;14.80;;;5.60;;
10557;SDS011;5327;47.238;-2.304;2023-04-03T08:29:40;24.20;;;7.40;;
10557;SDS011;5327;47.238;-2.304;2023-04-03T08:32:06;16.73;;;6.43;;
10557;SDS011;5327;47.238;-2.304;2023-04-03T08:34:32;14.97;;;5.77;;
10557;SDS011;5327;47.238;-2.304;2023-04-03T08:37:00;17.50;;;5.50;;
10557;SDS011;5327;47.238;-2.304;2023-04-03T08:39:26;15.60;;;5.17;;
10557;SDS011;5327;47.238;-2.304;2023-04-03T08:41:52;10.70;;;4.20;;
10557;SDS011;5327;47.238;-2.304;2023-04-03T08:49:48;18.17;;;6.90;;
10557;SDS011;5327;47.238;-2.304;2023-04-03T08:52:20;23.90;;;8.13;;
10557;SDS011;5327;47.238;-2.304;2023-04-03T08:54:55;15.03;;;6.77;;
10557;SDS011;5327;47.238;-2.304;2023-04-03T08:57:28;15.90;;;5.53;;
10557;SDS011;5327;47.238;-2.304;2023-04-03T08:59:54;19.80;;;5.37;;
10557;SDS011;5327;47.238;-2.304;2023-04-03T09:04:51;16.03;;;6.20;;
10557;SDS011;5327;47.238;-2.304;2023-04-03T09:07:39;13.50;;;6.27;;
10557;SDS011;5327;47.238;-2.304;2023-04-03T09:10:04;16.10;;;6.23;;
10557;SDS011;5327;47.238;-2.304;2023-04-03T09:12:34;15.70;;;6.00;;
10557;SDS011;5327;47.238;-2.304;2023-04-03T09:15:36;12.30;;;5.63;;
10557;SDS011;5327;47.238;-2.304;2023-04-03T09:20:29;10.40;;;6.40;;
10557;SDS011;5327;47.238;-2.304;2023-04-03T09:22:57;18.30;;;7.20;;
10557;SDS011;5327;47.238;-2.304;2023-04-03T09:25:24;11.87;;;5.87;;
10557;SDS011;5327;47.238;-2.304;2023-04-03T09:27:51;15.70;;;7.50;;
10557;SDS011;5327;47.238;-2.304;2023-04-03T09:30:18;12.90;;;6.30;;
10557;SDS011;5327;47.238;-2.304;2023-04-03T09:32:46;14.73;;;6.57;;
10557;SDS011;5327;47.238;-2.304;2023-04-03T09:35:27;19.03;;;6.50;;
10557;SDS011;5327;47.238;-2.304;2023-04-03T09:38:14;16.10;;;6.47;;
10557;SDS011;5327;47.238;-2.304;2023-04-03T09:40:41;11.30;;;5.37;;
10557;SDS011;5327;47.238;-2.304;2023-04-03T09:45:43;11.90;;;5.50;;
10557;SDS011;5327;47.238;-2.304;2023-04-03T09:55:59;13.10;;;5.60;;
10557;SDS011;5327;47.238;-2.304;2023-04-03T09:58:47;11.33;;;4.97;;
10557;SDS011;5327;47.238;-2.304;2023-04-03T10:03:50;10.87;;;5.20;;
10557;SDS011;5327;47.238;-2.304;2023-04-03T10:06:29;13.40;;;5.67;;
10557;SDS011;5327;47.238;-2.304;2023-04-03T10:09:00;13.53;;;5.03;;
10557;SDS011;5327;47.238;-2.304;2023-04-03T10:11:29;11.03;;;5.57;;
10557;SDS011;5327;47.238;-2.304;2023-04-03T10:13:56;15.10;;;6.50;;
10557;SDS011;5327;47.238;-2.304;2023-04-03T10:16:25;8.13;;;4.53;;
10557;SDS011;5327;47.238;-2.304;2023-04-03T10:29:16;13.00;;;5.60;;
10557;SDS011;5327;47.238;-2.304;2023-04-03T10:36:46;13.00;;;5.97;;
10557;SDS011;5327;47.238;-2.304;2023-04-03T10:52:14;11.00;;;4.53;;
10557;SDS011;5327;47.238;-2.304;2023-04-03T10:57:30;13.97;;;5.63;;
10557;SDS011;5327;47.238;-2.304;2023-04-03T11:00:01;14.80;;;5.43;;
10557;SDS011;5327;47.238;-2.304;2023-04-03T11:07:40;11.73;;;4.40;;
10557;SDS011;5327;47.238;-2.304;2023-04-03T11:10:21;15.10;;;5.20;;
10557;SDS011;5327;47.238;-2.304;2023-04-03T11:12:54;19.13;;;7.50;;
10557;SDS011;5327;47.238;-2.304;2023-04-03T11:15:22;16.27;;;6.03;;
10557;SDS011;5327;47.238;-2.304;2023-04-03T11:17:51;12.43;;;5.30;;
10557;SDS011;5327;47.238;-2.304;2023-04-03T11:20:29;16.23;;;5.90;;
10557;SDS011;5327;47.238;-2.304;2023-04-03T11:25:43;14.00;;;6.10;;
10557;SDS011;5327;47.238;-2.304;2023-04-03T11:28:11;16.73;;;7.10;;
10557;SDS011;5327;47.238;-2.304;2023-04-03T11:35:50;18.40;;;6.67;;
10557;SDS011;5327;47.238;-2.304;2023-04-03T11:38:19;18.00;;;7.57;;
10557;SDS011;5327;47.238;-2.304;2023-04-03T11:40:47;20.03;;;7.90;;
10557;SDS011;5327;47.238;-2.304;2023-04-03T11:43:25;24.90;;;10.30;;
10557;SDS011;5327;47.238;-2.304;2023-04-03T11:50:59;19.27;;;7.70;;
10557;SDS011;5327;47.238;-2.304;2023-04-03T11:55:53;24.30;;;9.00;;
10557;SDS011;5327;47.238;-2.304;2023-04-03T12:00:51;20.77;;;7.57;;
10557;SDS011;5327;47.238;-2.304;2023-04-03T12:13:37;21.80;;;9.57;;
10557;SDS011;5327;47.238;-2.304;2023-04-03T12:16:04;24.20;;;10.77;;
10557;SDS011;5327;47.238;-2.304;2023-04-03T12:21:07;23.17;;;9.63;;
10557;SDS011;5327;47.238;-2.304;2023-04-03T12:23:34;34.03;;;9.80;;
10557;SDS011;5327;47.238;-2.304;2023-04-03T12:26:03;23.17;;;9.87;;
10557;SDS011;5327;47.238;-2.304;2023-04-03T12:28:30;20.77;;;8.87;;
10557;SDS011;5327;47.238;-2.304;2023-04-03T12:30:57;21.63;;;10.00;;
10557;SDS011;5327;47.238;-2.304;2023-04-03T12:34:15;27.13;;;9.50;;
10557;SDS011;5327;47.238;-2.304;2023-04-03T12:36:23;17.80;;;7.30;;
10557;SDS011;5327;47.238;-2.304;2023-04-03T12:41:37;25.50;;;10.80;;
10557;SDS011;5327;47.238;-2.304;2023-04-03T12:46:49;19.97;;;8.87;;
10557;SDS011;5327;47.238;-2.304;2023-04-03T12:52:00;17.67;;;7.63;;
10557;SDS011;5327;47.238;-2.304;2023-04-03T12:54:40;23.50;;;9.33;;
10557;SDS011;5327;47.238;-2.304;2023-04-03T13:02:47;20.70;;;9.33;;
10557;SDS011;5327;47.238;-2.304;2023-04-03T13:05:15;18.57;;;8.90;;
10557;SDS011;5327;47.238;-2.304;2023-04-03T13:07:42;14.77;;;7.53;;
10557;SDS011;5327;47.238;-2.304;2023-04-03T13:12:44;15.37;;;8.07;;
10557;SDS011;5327;47.238;-2.304;2023-04-03T13:15:15;16.97;;;8.83;;
10557;SDS011;5327;47.238;-2.304;2023-04-03T13:17:43;19.53;;;7.60;;
10557;SDS011;5327;47.238;-2.304;2023-04-03T13:20:19;18.00;;;8.57;;
10557;SDS011;5327;47.238;-2.304;2023-04-03T13:23:12;19.57;;;7.83;;
10557;SDS011;5327;47.238;-2.304;2023-04-03T13:25:40;20.00;;;8.07;;
10557;SDS011;5327;47.238;-2.304;2023-04-03T13:28:06;19.07;;;8.47;;
10557;SDS011;5327;47.238;-2.304;2023-04-03T13:30:34;22.70;;;9.03;;
10557;SDS011;5327;47.238;-2.304;2023-04-03T13:33:02;21.03;;;7.87;;
10557;SDS011;5327;47.238;-2.304;2023-04-03T13:35:34;18.33;;;7.97;;
10557;SDS011;5327;47.238;-2.304;2023-04-03T13:38:03;17.53;;;7.17;;
10557;SDS011;5327;47.238;-2.304;2023-04-03T13:40:29;15.67;;;7.07;;
10557;SDS011;5327;47.238;-2.304;2023-04-03T13:43:37;20.07;;;9.50;;
10557;SDS011;5327;47.238;-2.304;2023-04-03T13:45:58;17.70;;;7.90;;
10557;SDS011;5327;47.238;-2.304;2023-04-03T13:48:25;18.20;;;7.33;;
10557;SDS011;5327;47.238;-2.304;2023-04-03T13:50:58;21.97;;;10.63;;
10557;SDS011;5327;47.238;-2.304;2023-04-03T13:53:25;22.03;;;9.13;;
10557;SDS011;5327;47.238;-2.304;2023-04-03T13:58:25;20.43;;;9.47;;
10557;SDS011;5327;47.238;-2.304;2023-04-03T14:03:45;24.53;;;10.03;;
10557;SDS011;5327;47.238;-2.304;2023-04-03T14:06:13;18.53;;;7.67;;
10557;SDS011;5327;47.238;-2.304;2023-04-03T14:08:40;30.10;;;10.50;;
10557;SDS011;5327;47.238;-2.304;2023-04-03T14:11:09;17.30;;;8.60;;
10557;SDS011;5327;47.238;-2.304;2023-04-03T14:13:35;21.43;;;9.60;;
10557;SDS011;5327;47.238;-2.304;2023-04-03T14:16:01;19.80;;;7.40;;
10557;SDS011;5327;47.238;-2.304;2023-04-03T14:18:27;20.33;;;9.57;;
10557;SDS011;5327;47.238;-2.304;2023-04-03T14:20:53;18.67;;;7.00;;
10557;SDS011;5327;47.238;-2.304;2023-04-03T14:23:19;24.53;;;9.60;;
10557;SDS011;5327;47.238;-2.304;2023-04-03T14:25:45;19.10;;;7.83;;
10557;SDS011;5327;47.238;-2.304;2023-04-03T14:28:14;20.57;;;8.20;;
10557;SDS011;5327;47.238;-2.304;2023-04-03T14:30:40;19.20;;;8.30;;
10557;SDS011;5327;47.238;-2.304;2023-04-03T14:33:09;16.27;;;6.93;;
10557;SDS011;5327;47.238;-2.304;2023-04-03T14:35:36;16.93;;;6.87;;
10557;SDS011;5327;47.238;-2.304;2023-04-03T14:38:02;19.70;;;8.57;;
10557;SDS011;5327;47.238;-2.304;2023-04-03T14:40:31;17.73;;;7.33;;
10557;SDS011;5327;47.238;-2.304;2023-04-03T14:42:57;18.83;;;7.40;;
10557;SDS011;5327;47.238;-2.304;2023-04-03T14:45:23;19.37;;;7.43;;
10557;SDS011;5327;47.238;-2.304;2023-04-03T14:47:51;18.40;;;8.50;;
10557;SDS011;5327;47.238;-2.304;2023-04-03T14:50:18;28.00;;;8.00;;
10557;SDS011;5327;47.238;-2.304;2023-04-03T14:52:46;19.87;;;7.50;;
10557;SDS011;5327;47.238;-2.304;2023-04-03T14:55:14;21.40;;;8.53;;
10557;SDS011;5327;47.238;-2.304;2023-04-03T14:57:40;21.63;;;9.00;;
10557;SDS011;5327;47.238;-2.304;2023-04-03T15:00:07;18.40;;;8.00;;
10557;SDS011;5327;47.238;-2.304;2023-04-03T15:02:37;16.73;;;7.73;;
10557;SDS011;5327;47.238;-2.304;2023-04-03T15:05:05;19.33;;;7.43;;
10557;SDS011;5327;47.238;-2.304;2023-04-03T15:07:35;16.23;;;6.63;;
10557;SDS011;5327;47.238;-2.304;2023-04-03T15:10:05;14.43;;;7.63;;
10557;SDS011;5327;47.238;-2.304;2023-04-03T15:12:32;21.80;;;8.43;;
10557;SDS011;5327;47.238;-2.304;2023-04-03T15:14:58;20.23;;;8.40;;
10557;SDS011;5327;47.238;-2.304;2023-04-03T15:17:24;17.70;;;7.57;;
10557;SDS011;5327;47.238;-2.304;2023-04-03T15:19:50;26.43;;;9.13;;
10557;SDS011;5327;47.238;-2.304;2023-04-03T15:22:18;20.17;;;8.40;;
10557;SDS011;5327;47.238;-2.304;2023-04-03T15:24:44;18.90;;;8.30;;
10557;SDS011;5327;47.238;-2.304;2023-04-03T15:27:11;17.93;;;8.00;;
10557;SDS011;5327;47.238;-2.304;2023-04-03T15:29:38;20.63;;;7.30;;
10557;SDS011;5327;47.238;-2.304;2023-04-03T15:32:05;15.43;;;7.37;;
10557;SDS011;5327;47.238;-2.304;2023-04-03T15:34:31;18.93;;;7.37;;
10557;SDS011;5327;47.238;-2.304;2023-04-03T15:36:58;19.10;;;7.30;;
10557;SDS011;5327;47.238;-2.304;2023-04-03T15:39:24;18.60;;;7.00;;
10557;SDS011;5327;47.238;-2.304;2023-04-03T15:41:51;18.67;;;7.70;;
10557;SDS011;5327;47.238;-2.304;2023-04-03T15:44:17;24.80;;;8.87;;
10557;SDS011;5327;47.238;-2.304;2023-04-03T15:46:44;17.07;;;6.70;;
10557;SDS011;5327;47.238;-2.304;2023-04-03T15:49:10;19.10;;;7.67;;
10557;SDS011;5327;47.238;-2.304;2023-04-03T15:51:36;17.97;;;7.17;;
10557;SDS011;5327;47.238;-2.304;2023-04-03T15:54:02;17.83;;;7.33;;
10557;SDS011;5327;47.238;-2.304;2023-04-03T15:56:28;18.73;;;7.07;;
10557;SDS011;5327;47.238;-2.304;2023-04-03T15:58:54;18.17;;;7.80;;
10557;SDS011;5327;47.238;-2.304;2023-04-03T16:01:20;22.13;;;7.70;;
10557;SDS011;5327;47.238;-2.304;2023-04-03T16:03:47;16.20;;;7.80;;
10557;SDS011;5327;47.238;-2.304;2023-04-03T16:06:16;17.03;;;6.77;;
10557;SDS011;5327;47.238;-2.304;2023-04-03T16:08:44;23.93;;;8.70;;
10557;SDS011;5327;47.238;-2.304;2023-04-03T16:11:10;19.00;;;5.97;;
10557;SDS011;5327;47.238;-2.304;2023-04-03T16:13:36;18.63;;;7.23;;
10557;SDS011;5327;47.238;-2.304;2023-04-03T16:16:02;18.83;;;6.80;;
10557;SDS011;5327;47.238;-2.304;2023-04-03T16:18:28;18.60;;;7.10;;
10557;SDS011;5327;47.238;-2.304;2023-04-03T16:20:55;14.93;;;6.13;;
10557;SDS011;5327;47.238;-2.304;2023-04-03T16:23:21;19.70;;;8.00;;
10557;SDS011;5327;47.238;-2.304;2023-04-03T16:25:47;19.67;;;7.60;;
10557;SDS011;5327;47.238;-2.304;2023-04-03T16:28:14;19.80;;;7.93;;
10557;SDS011;5327;47.238;-2.304;2023-04-03T16:30:42;16.07;;;6.83;;
10557;SDS011;5327;47.238;-2.304;2023-04-03T16:33:08;15.80;;;6.20;;
10557;SDS011;5327;47.238;-2.304;2023-04-03T16:35:35;16.53;;;7.13;;
10557;SDS011;5327;47.238;-2.304;2023-04-03T16:38:01;13.80;;;7.17;;